Terminal Aerodrome Forecast
Issued by NWS

Home | Current Version | Previous Version | Text Only | Print | Product List | Glossary On
Versions: 1 2 3 4 5 6 7 8 9 10 11 12 13 14 15 16 17 18 19 20 21 22 23 24
000
FTUS44 KOUN 040521
TAFHBR
TAF
KHBR 040521Z 0406/0506 16013KT P6SM SCT120 BKN250
     FM041400 18014G23KT P6SM SCT015 BKN025
     FM041800 17015G26KT P6SM BKN050
     FM050100 16013KT P6SM BKN100=

USA.gov is the U.S. government's official web portal to all federal, state and local government web resources and services.